Zim Vancouver — A8LK5 — position and weather

sailwx.info

Track history (hours):
 
Tides and Currents Weather Stations Pressure Air Temp Water Temp Dewpoint Dewpoint Depression Visibility Wind Speed Wind Dir Waves Ship Positions

Zim Vancouver

Last reported at 2015-Sep-01 04:22 UTC. Time now 2015-Sep-01 05:57 UTC.
Position N 39°48' E 013°37'.

Length 260 m; draft 12.7 m.

Type: Ship. MMSI: 636013214.

Date/timePositionNaut miles runAvg speedWind from/ knotsBaromVisibWave heightAir tempDewpointWater temp
2015-Sep-01 04:22N 39°48' E 013°37'1212.8
2015-Sep-01 03:27N 39°40' E 013°49'6712.7
2015-Aug-31 22:13N 38°56' E 014°52'913.0
2015-Aug-31 21:33N 38°50' E 015°01'1313.4
2015-Aug-31 20:33N 38°41' E 015°13'1413.4
2015-Aug-31 19:33N 38°32' E 015°25'1312.8
2015-Aug-31 18:33N 38°23' E 015°37'1111.0
2015-Aug-31 17:33N 38°12' E 015°37'1514.5
2015-Aug-31 16:33N 37°57' E 015°37'1413.2
2015-Aug-31 15:28N 37°50' E 015°53'37111.8
2015-Aug-30 08:05N 37°16' E 023°39'813.3
2015-Aug-30 07:29N 37°24' E 023°41'1213.0
2015-Aug-30 06:34N 37°36' E 023°42'1313.3
2015-Aug-30 05:33N 37°48' E 023°37'9 8.9
2015-Aug-30 04:32N 37°57' E 023°35'0 0.0
2015-Aug-30 03:32N 37°57' E 023°35'0 0.0
2015-Aug-30 02:32N 37°57' E 023°35'0 0.0
2015-Aug-30 01:32N 37°57' E 023°35'0 0.0
2015-Aug-30 00:32N 37°57' E 023°35'0 0.0
2015-Aug-29 23:32N 37°57' E 023°35'0 0.0
2015-Aug-29 22:32N 37°57' E 023°35'0 0.0
2015-Aug-29 21:29N 37°57' E 023°35'0 0.0
2015-Aug-29 20:32N 37°57' E 023°35'0 0.0
2015-Aug-29 19:32N 37°57' E 023°35'0 0.0
2015-Aug-29 18:32N 37°57' E 023°35'0 0.0
2015-Aug-29 17:29N 37°57' E 023°35'0 0.0
2015-Aug-29 16:32N 37°57' E 023°35'0 0.0
2015-Aug-29 15:32N 37°57' E 023°35'0 0.0
2015-Aug-29 14:32N 37°57' E 023°35'0 0.0
2015-Aug-29 13:33N 37°57' E 023°35'0 0.4
2015-Aug-29 12:34N 37°57' E 023°35'4 3.5
2015-Aug-29 11:33N 37°53' E 023°35'2 2.3
2015-Aug-29 10:33N 37°53' E 023°38'1010.3
2015-Aug-29 09:33N 37°43' E 023°43'1310.8
2015-Aug-29 08:19N 37°35' E 023°56'2712.0
2015-Aug-29 06:06N 37°49' E 024°25'713.0
2015-Aug-29 05:33N 37°53' E 024°32'4414.5
2015-Aug-29 02:32N 38°31' E 024°58'1513.7
2015-Aug-29 01:27N 38°45' E 025°06'20513.5
2015-Aug-28 10:13N 40°54' E 028°34'6 0.4
2015-Aug-27 18:33N 40°50' E 028°40'22513.9
2015-Aug-27 02:23N 37°49' E 025°47'1618.9
2015-Aug-27 01:33N 37°34' E 025°50'1818.0
2015-Aug-27 00:32N 37°20' E 026°06'1919.2
2015-Aug-26 23:33N 37°09' E 026°25'2518.0
2015-Aug-26 22:11N 36°48' E 026°42'1618.4
2015-Aug-26 21:19N 36°33' E 026°48'2017.9
2015-Aug-26 20:14N 36°18' E 027°04'3818.0
2015-Aug-26 18:08N 35°51' E 027°36'1118.5
2015-Aug-26 17:32N 35°44' E 027°47'20418.3
2015-Aug-26 06:23N 34°12' E 031°29'1618.2
2015-Aug-26 05:31N 34°05' E 031°46'7518.3
2015-Aug-26 01:27N 33°31' E 033°06'7218.4
2015-Aug-25 21:34N 33°01' E 034°24'1818.0
2015-Aug-25 20:33N 32°56' E 034°44'  
Track history (hours):
 
Tides and Currents Weather Stations Pressure Air Temp Water Temp Dewpoint Dewpoint Depression Visibility Wind Speed Wind Dir Waves Ship Positions

Zim Vancouver

Last reported at 2015-Sep-01 04:22 UTC. Time now 2015-Sep-01 05:57 UTC.
Position N 39°48' E 013°37'.

Length 260 m; draft 12.7 m.

Type: Ship. MMSI: 636013214.

Date/timePositionNaut miles runAvg speedWind from/ knotsBaromVisibWave heightAir tempDewpointWater temp
2015-Sep-01 04:22N 39°48' E 013°37'1212.8
2015-Sep-01 03:27N 39°40' E 013°49'6712.7
2015-Aug-31 22:13N 38°56' E 014°52'913.0
2015-Aug-31 21:33N 38°50' E 015°01'1313.4
2015-Aug-31 20:33N 38°41' E 015°13'1413.4
2015-Aug-31 19:33N 38°32' E 015°25'1312.8
2015-Aug-31 18:33N 38°23' E 015°37'1111.0
2015-Aug-31 17:33N 38°12' E 015°37'1514.5
2015-Aug-31 16:33N 37°57' E 015°37'1413.2
2015-Aug-31 15:28N 37°50' E 015°53'37111.8
2015-Aug-30 08:05N 37°16' E 023°39'813.3
2015-Aug-30 07:29N 37°24' E 023°41'1213.0
2015-Aug-30 06:34N 37°36' E 023°42'1313.3
2015-Aug-30 05:33N 37°48' E 023°37'9 8.9
2015-Aug-30 04:32N 37°57' E 023°35'0 0.0
2015-Aug-30 03:32N 37°57' E 023°35'0 0.0
2015-Aug-30 02:32N 37°57' E 023°35'0 0.0
2015-Aug-30 01:32N 37°57' E 023°35'0 0.0
2015-Aug-30 00:32N 37°57' E 023°35'0 0.0
2015-Aug-29 23:32N 37°57' E 023°35'0 0.0
2015-Aug-29 22:32N 37°57' E 023°35'0 0.0
2015-Aug-29 21:29N 37°57' E 023°35'0 0.0
2015-Aug-29 20:32N 37°57' E 023°35'0 0.0
2015-Aug-29 19:32N 37°57' E 023°35'0 0.0
2015-Aug-29 18:32N 37°57' E 023°35'0 0.0
2015-Aug-29 17:29N 37°57' E 023°35'0 0.0
2015-Aug-29 16:32N 37°57' E 023°35'0 0.0
2015-Aug-29 15:32N 37°57' E 023°35'0 0.0
2015-Aug-29 14:32N 37°57' E 023°35'0 0.0
2015-Aug-29 13:33N 37°57' E 023°35'0 0.4
2015-Aug-29 12:34N 37°57' E 023°35'4 3.5
2015-Aug-29 11:33N 37°53' E 023°35'2 2.3
2015-Aug-29 10:33N 37°53' E 023°38'1010.3
2015-Aug-29 09:33N 37°43' E 023°43'1310.8
2015-Aug-29 08:19N 37°35' E 023°56'2712.0
2015-Aug-29 06:06N 37°49' E 024°25'713.0
2015-Aug-29 05:33N 37°53' E 024°32'4414.5
2015-Aug-29 02:32N 38°31' E 024°58'1513.7
2015-Aug-29 01:27N 38°45' E 025°06'20513.5
2015-Aug-28 10:13N 40°54' E 028°34'6 0.4
2015-Aug-27 18:33N 40°50' E 028°40'22513.9
2015-Aug-27 02:23N 37°49' E 025°47'1618.9
2015-Aug-27 01:33N 37°34' E 025°50'1818.0
2015-Aug-27 00:32N 37°20' E 026°06'1919.2
2015-Aug-26 23:33N 37°09' E 026°25'2518.0
2015-Aug-26 22:11N 36°48' E 026°42'1618.4
2015-Aug-26 21:19N 36°33' E 026°48'2017.9
2015-Aug-26 20:14N 36°18' E 027°04'3818.0
2015-Aug-26 18:08N 35°51' E 027°36'1118.5
2015-Aug-26 17:32N 35°44' E 027°47'20418.3
2015-Aug-26 06:23N 34°12' E 031°29'1618.2
2015-Aug-26 05:31N 34°05' E 031°46'7518.3
2015-Aug-26 01:27N 33°31' E 033°06'7218.4
2015-Aug-25 21:34N 33°01' E 034°24'1818.0
2015-Aug-25 20:33N 32°56' E 034°44'  

Dump ship's entire track history